Krakow, Poland
Current Conditions -  °F | °C
As of 11:30 AM on Thursday 23 Oct 2014 (Local Time) from EPKK Reporting Station
Drizzle Drizzle  
Wind Chill: 35°   Ceiling: 1100
Heat Index: 43°   Visibility: 4mi
Dew Point: 41°   Wind: 15mph
Humidity: 93%   Direction: 50°NE
Pressure: 29.94"   Gusts: NA
Location:  50°N, 19.99°E
Report Text: EPKK 230930Z 05013KT 7000 -DZ SCT008 BKN011 06/05 Q1014
Loading
Personal Weather Stations






























Interactive Weather Map
Tropical Storm Tracking
New forecast layout! Learn more

10-Day Weather Forecast

Advertisements
Track Severe Weather on mobile